Time;durP1;ratioP1;P1;durP2;ratioP2;P2;SDS_P1;SDS_P2;PMS_P1;PMS_P2;Temp;Humidity;BMP_temperature;BMP_pressure;BME280_temperature;BME280_humidity;BME280_pressure;Samples;Min_cycle;Max_cycle;Signal;HPM_P1;HPM_P2
2021/06/06 00:07:44;;;;;;;3.63;2.63;;;14.60;99.90;;;;;;20884150;28;20041;-77
2021/06/06 00:17:45;;;;;;;4.40;3.10;;;14.60;99.90;;;;;;20883550;28;20051;-76
2021/06/06 00:27:45;;;;;;;7.50;3.77;;;14.50;99.90;;;;;;20893441;28;20040;-76
2021/06/06 00:37:46;;;;;;;6.63;4.47;;;14.50;99.90;;;;;;20899679;28;20507;-76
2021/06/06 00:47:48;;;;;;;8.37;5.37;;;14.40;99.90;;;;;;20855166;28;20439;-76
2021/06/06 00:57:51;;;;;;;8.82;6.20;;;14.30;99.90;;;;;;20887397;28;20041;-76
2021/06/06 01:07:52;;;;;;;8.95;6.13;;;14.20;99.90;;;;;;20864344;28;20048;-78
2021/06/06 01:18:06;;;;;;;;;;;14.20;99.90;;;;;;20878776;28;20037;-77
2021/06/06 01:28:36;;;;;;;16.02;7.25;;;14.10;99.90;;;;;;20900405;28;20478;-77
2021/06/06 01:38:38;;;;;;;10.43;6.68;;;14.10;99.90;;;;;;20931189;28;20037;-78
2021/06/06 01:48:43;;;;;;;10.88;6.82;;;14.10;99.90;;;;;;20931942;28;20110;-76
2021/06/06 01:58:47;;;;;;;13.20;7.38;;;14.20;99.90;;;;;;20916723;28;20037;-77
2021/06/06 02:08:49;;;;;;;9.88;6.82;;;14.20;99.90;;;;;;20928220;28;20037;-77
2021/06/06 02:18:58;;;;;;;8.32;6.20;;;14.30;99.90;;;;;;20895110;28;20029;-77
2021/06/06 02:29:00;;;;;;;14.48;5.95;;;14.20;99.90;;;;;;20909717;28;20094;-76
2021/06/06 02:39:07;;;;;;;7.63;5.20;;;14.30;99.90;;;;;;20897316;28;20041;-77
2021/06/06 02:49:16;;;;;;;6.07;4.50;;;14.30;99.90;;;;;;20825942;28;20049;-77
2021/06/06 02:59:48;;;;;;;13.63;5.88;;;14.30;99.90;;;;;;20826772;28;20048;-77
2021/06/06 03:09:54;;;;;;;8.68;5.20;;;14.40;99.90;;;;;;20825409;28;20043;-76
2021/06/06 03:20:01;;;;;;;11.43;6.82;;;14.30;99.90;;;;;;20890267;28;20044;-77
2021/06/06 03:30:22;;;;;;;7.38;5.47;;;14.20;99.90;;;;;;20889311;28;20045;-75
2021/06/06 03:40:27;;;;;;;10.27;6.75;;;14.30;99.90;;;;;;20881256;28;20056;-76
2021/06/06 03:50:37;;;;;;;11.35;7.30;;;14.20;99.90;;;;;;20822728;28;20037;-76
2021/06/06 04:00:44;;;;;;;9.57;7.45;;;14.20;99.90;;;;;;20823533;28;20100;-77
2021/06/06 04:10:49;;;;;;;9.80;7.10;;;14.20;99.90;;;;;;20869070;28;20036;-77
2021/06/06 04:20:52;;;;;;;8.13;5.93;;;14.10;99.90;;;;;;20871880;28;20131;-77
2021/06/06 04:30:54;;;;;;;9.95;6.03;;;14.10;99.90;;;;;;20904210;28;20048;-77
2021/06/06 04:41:00;;;;;;;5.45;3.90;;;14.10;99.90;;;;;;20868244;28;20057;-77
2021/06/06 04:51:06;;;;;;;4.55;3.70;;;14.10;99.90;;;;;;20818625;28;20555;-76
2021/06/06 05:01:14;;;;;;;5.68;3.42;;;14.20;99.90;;;;;;20818483;28;20044;-76
2021/06/06 05:11:16;;;;;;;5.15;3.00;;;14.20;99.90;;;;;;20864262;28;20492;-77
2021/06/06 05:21:18;;;;;;;4.47;3.17;;;14.30;99.90;;;;;;20900172;28;20571;-77
2021/06/06 05:31:21;;;;;;;;;;;14.40;99.90;;;;;;20898938;28;20036;-76
2021/06/06 05:41:22;;;;;;;2.25;2.00;;;14.40;99.90;;;;;;20882927;28;19913;-77
2021/06/06 05:51:23;;;;;;;3.43;2.10;;;14.50;99.90;;;;;;20831389;28;20132;-76
2021/06/06 06:01:32;;;;;;;2.50;2.00;;;14.70;99.90;;;;;;20801424;28;20147;-75
2021/06/06 06:11:33;;;;;;;6.23;2.67;;;14.80;99.90;;;;;;20864684;28;20439;-77
2021/06/06 06:21:36;;;;;;;;;;;14.90;99.90;;;;;;20912176;28;20064;-76
2021/06/06 06:31:37;;;;;;;2.50;1.88;;;15.10;99.90;;;;;;20918329;28;19930;-77
2021/06/06 06:41:44;;;;;;;2.30;1.60;;;15.20;99.90;;;;;;20876310;28;20041;-77
2021/06/06 06:51:45;;;;;;;3.87;1.70;;;15.50;99.90;;;;;;20829397;28;20048;-77
2021/06/06 07:01:45;;;;;;;2.37;1.60;;;15.40;99.90;;;;;;20835375;28;20041;-76
2021/06/06 07:11:47;;;;;;;2.57;1.37;;;15.40;99.90;;;;;;20904336;28;20029;-77
2021/06/06 07:21:48;;;;;;;4.87;1.60;;;15.40;99.90;;;;;;20907566;28;20044;-77
2021/06/06 07:31:53;;;;;;;1.93;1.50;;;15.50;99.90;;;;;;20889713;28;20041;-77
2021/06/06 07:41:54;;;;;;;2.63;1.38;;;15.60;99.90;;;;;;20888938;28;20542;-76
2021/06/06 07:51:55;;;;;;;1.47;1.27;;;15.90;99.90;;;;;;20914253;28;20049;-76
2021/06/06 08:01:56;;;;;;;1.57;1.10;;;16.20;99.90;;;;;;20920159;28;20033;-76
2021/06/06 08:11:59;;;;;;;1.40;1.20;;;16.60;99.90;;;;;;20909741;28;20033;-76
2021/06/06 08:22:01;;;;;;;1.10;1.00;;;16.40;99.90;;;;;;20945014;28;20109;-75
2021/06/06 08:32:03;;;;;;;1.30;1.20;;;16.20;99.90;;;;;;20941727;28;20116;-76
2021/06/06 08:42:29;;;;;;;1.67;1.30;;;16.40;99.90;;;;;;20918485;28;20115;-76
2021/06/06 08:53:18;;;;;;;3.25;1.30;;;16.50;99.90;;;;;;20933021;28;20793;-76
2021/06/06 09:03:23;;;;;;;1.30;1.20;;;16.70;99.90;;;;;;20852513;28;20068;-76
2021/06/06 09:13:27;;;;;;;2.13;1.58;;;16.90;99.90;;;;;;20879710;28;20647;-75
2021/06/06 09:23:31;;;;;;;2.03;1.33;;;16.80;99.90;;;;;;20825898;28;20060;-76
2021/06/06 09:33:42;;;;;;;1.30;1.08;;;17.00;99.90;;;;;;20864490;28;20160;-76
2021/06/06 09:43:56;;;;;;;1.58;1.10;;;17.10;99.90;;;;;;20886429;28;20377;-76
2021/06/06 09:54:13;;;;;;;1.88;0.80;;;17.10;99.90;;;;;;20889405;28;20364;-75
2021/06/06 10:04:28;;;;;;;0.50;0.50;;;17.20;99.90;;;;;;20888860;28;20041;-76
2021/06/06 10:14:42;;;;;;;2.42;1.00;;;17.10;99.90;;;;;;20877807;28;20496;-76
2021/06/06 10:24:57;;;;;;;1.50;0.95;;;17.20;99.90;;;;;;20883593;28;20037;-76
2021/06/06 10:35:19;;;;;;;4.47;0.88;;;17.20;99.90;;;;;;20869608;28;20690;-76
2021/06/06 10:45:25;;;;;;;1.63;1.20;;;17.60;99.90;;;;;;20882403;28;20033;-75
2021/06/06 10:55:33;;;;;;;2.45;1.00;;;17.80;99.90;;;;;;20868847;28;20096;-75
2021/06/06 11:05:47;;;;;;;5.15;1.30;;;18.10;99.90;;;;;;20785037;28;20096;-76
2021/06/06 11:16:17;;;;;;;0.57;0.50;;;18.90;99.90;;;;;;20852948;28;20052;-76
2021/06/06 11:26:31;;;;;;;0.68;0.68;;;19.60;99.90;;;;;;20876108;28;20037;-76
2021/06/06 11:36:44;;;;;;;2.22;1.30;;;19.20;99.90;;;;;;20869546;28;20045;-75
2021/06/06 11:47:05;;;;;;;3.05;1.90;;;19.20;99.90;;;;;;20893428;28;20068;-75
2021/06/06 11:57:30;;;;;;;1.10;0.90;;;18.80;99.90;;;;;;20902813;28;20136;-74
2021/06/06 12:07:31;;;;;;;1.05;0.82;;;19.40;99.90;;;;;;20903314;28;20056;-75
2021/06/06 12:17:32;;;;;;;0.97;0.93;;;18.80;99.90;;;;;;20802111;28;20045;-75
2021/06/06 12:27:38;;;;;;;1.33;1.00;;;18.30;99.90;;;;;;20831884;28;20104;-75
2021/06/06 12:37:40;;;;;;;1.50;1.40;;;18.00;99.90;;;;;;20856527;28;20044;-76
2021/06/06 12:47:44;;;;;;;2.67;1.67;;;17.50;99.90;;;;;;20900002;28;20158;-75
2021/06/06 12:57:52;;;;;;;3.08;1.55;;;17.50;99.90;;;;;;20846668;28;20045;-76
2021/06/06 13:07:58;;;;;;;1.73;1.45;;;17.40;99.90;;;;;;20850061;28;20505;-75
2021/06/06 13:18:00;;;;;;;1.70;1.60;;;17.40;99.90;;;;;;20900982;28;20048;-76
2021/06/06 13:28:19;;;;;;;2.17;1.23;;;17.70;99.90;;;;;;20893321;28;20033;-76
2021/06/06 13:38:22;;;;;;;1.13;0.90;;;17.70;99.90;;;;;;20893874;28;21021;-76
2021/06/06 13:48:24;;;;;;;2.80;1.25;;;18.10;99.90;;;;;;20898352;28;20040;-77
2021/06/06 13:58:27;;;;;;;8.68;2.50;;;18.10;99.90;;;;;;20842740;28;20420;-78
2021/06/06 14:08:29;;;;;;;1.70;1.40;;;17.90;99.90;;;;;;20819758;28;20033;-77
2021/06/06 14:18:30;;;;;;;3.83;1.63;;;17.80;99.90;;;;;;20874151;28;20045;-77
2021/06/06 14:28:31;;;;;;;5.03;1.87;;;17.50;99.90;;;;;;20863595;28;20061;-76
2021/06/06 14:38:33;;;;;;;3.13;1.70;;;17.70;99.90;;;;;;20879422;28;20072;-77
2021/06/06 14:48:34;;;;;;;;;;;18.30;99.90;;;;;;20889357;28;20069;-77
2021/06/06 14:58:37;;;;;;;6.60;2.40;;;18.10;99.90;;;;;;20845332;28;19921;-77
2021/06/06 15:08:38;;;;;;;3.47;2.25;;;18.00;99.90;;;;;;20882521;28;20044;-76
2021/06/06 15:18:41;;;;;;;3.88;2.40;;;17.90;99.90;;;;;;20870717;28;20049;-78
2021/06/06 15:28:43;;;;;;;6.25;3.25;;;17.90;99.90;;;;;;20888254;28;20037;-77
2021/06/06 15:38:47;;;;;;;7.90;3.57;;;17.70;99.90;;;;;;20901576;28;20051;-77
2021/06/06 15:48:50;;;;;;;8.23;3.85;;;17.80;99.90;;;;;;20887404;28;20789;-77
2021/06/06 15:58:52;;;;;;;5.70;3.72;;;17.60;99.90;;;;;;20855041;28;20055;-77
2021/06/06 16:08:54;;;;;;;5.93;3.97;;;17.40;99.90;;;;;;20890981;28;20123;-78
2021/06/06 16:18:55;;;;;;;8.87;3.83;;;17.40;99.90;;;;;;20851387;28;20045;-79
2021/06/06 16:28:55;;;;;;;7.77;3.73;;;17.50;99.90;;;;;;20856503;28;20068;-78
2021/06/06 16:38:57;;;;;;;5.53;3.60;;;17.70;99.90;;;;;;20895083;28;20128;-78
2021/06/06 16:48:58;;;;;;;5.00;3.80;;;17.60;99.90;;;;;;20868509;28;20042;-77
2021/06/06 16:59:00;;;;;;;7.30;4.30;;;17.40;99.90;;;;;;20852907;28;20502;-75
2021/06/06 17:09:03;;;;;;;;;;;17.20;99.90;;;;;;20892200;28;20764;-76
2021/06/06 17:19:04;;;;;;;5.25;4.20;;;17.20;99.90;;;;;;20875954;28;19920;-76
2021/06/06 17:29:13;;;;;;;5.77;4.17;;;17.20;99.90;;;;;;20886647;28;20095;-76
2021/06/06 17:39:15;;;;;;;8.35;4.60;;;17.30;99.90;;;;;;20891378;28;20048;-76
2021/06/06 17:49:15;;;;;;;;;;;17.20;99.90;;;;;;20892472;28;20807;-76
2021/06/06 17:59:18;;;;;;;5.57;3.85;;;17.00;99.90;;;;;;20828266;28;19924;-75
2021/06/06 18:09:20;;;;;;;5.10;4.10;;;16.90;99.90;;;;;;20889227;28;20041;-76
2021/06/06 18:19:21;;;;;;;4.57;3.67;;;16.80;99.90;;;;;;20871147;28;20072;-76
2021/06/06 18:29:22;;;;;;;5.57;3.70;;;16.70;99.90;;;;;;20909092;28;20125;-76
2021/06/06 18:39:23;;;;;;;4.63;3.37;;;16.70;99.90;;;;;;20907754;28;20049;-76
2021/06/06 18:49:24;;;;;;;6.17;3.47;;;16.60;99.90;;;;;;20895506;28;20045;-76
2021/06/06 18:59:25;;;;;;;5.30;3.53;;;16.50;99.90;;;;;;20902042;28;20028;-76
2021/06/06 19:09:26;;;;;;;5.43;3.93;;;16.40;99.90;;;;;;20874772;28;20032;-76
2021/06/06 19:19:26;;;;;;;4.20;3.73;;;16.40;99.90;;;;;;20914515;28;20041;-77
2021/06/06 19:29:27;;;;;;;3.83;2.70;;;16.40;99.90;;;;;;20913448;28;20048;-80
2021/06/06 19:39:28;;;;;;;6.60;3.20;;;16.40;99.90;;;;;;20888825;28;20102;-78
2021/06/06 19:49:29;;;;;;;5.60;4.07;;;16.50;99.90;;;;;;20958258;28;20056;-78
2021/06/06 19:59:30;;;;;;;7.50;4.07;;;16.50;99.90;;;;;;20914062;28;20423;-79
2021/06/06 20:09:31;;;;;;;5.77;3.87;;;16.40;99.90;;;;;;20884847;28;20048;-77
2021/06/06 20:19:33;;;;;;;6.13;3.87;;;16.30;99.90;;;;;;20855244;28;20805;-77
2021/06/06 20:29:34;;;;;;;5.90;3.90;;;16.30;99.90;;;;;;20981315;28;20044;-77
2021/06/06 20:39:37;;;;;;;6.13;3.97;;;16.30;99.90;;;;;;20914367;28;20071;-79
2021/06/06 20:49:40;;;;;;;5.72;4.25;;;16.30;99.90;;;;;;20830074;28;20068;-77
2021/06/06 20:59:41;;;;;;;6.03;4.47;;;16.20;99.90;;;;;;20863037;28;20055;-78
2021/06/06 21:09:43;;;;;;;7.47;3.93;;;16.10;99.90;;;;;;20900262;28;20041;-77
2021/06/06 21:19:44;;;;;;;6.65;4.78;;;16.10;99.90;;;;;;20909212;28;20060;-79
2021/06/06 21:29:45;;;;;;;9.03;5.80;;;16.10;99.90;;;;;;20907678;28;20117;-78
2021/06/06 21:39:45;;;;;;;10.13;5.77;;;16.00;99.90;;;;;;20865555;28;20057;-76
2021/06/06 21:49:46;;;;;;;8.97;6.30;;;15.90;99.90;;;;;;20856830;28;20052;-78
2021/06/06 21:59:47;;;;;;;9.67;6.03;;;15.80;99.90;;;;;;20902092;28;20815;-77
2021/06/06 22:09:48;;;;;;;11.87;5.73;;;15.80;99.90;;;;;;20820042;28;20116;-79
2021/06/06 22:20:27;;;;;;;10.70;6.10;;;15.80;99.90;;;;;;20886981;28;20044;-77
2021/06/06 22:31:05;;;;;;;15.55;8.60;;;15.80;99.90;;;;;;20890021;28;20094;-79
2021/06/06 22:41:43;;;;;;;14.85;9.05;;;15.60;99.90;;;;;;20932041;28;20033;-79
2021/06/06 22:52:22;;;;;;;18.05;8.73;;;15.60;99.90;;;;;;20944475;28;20037;-78
2021/06/06 23:03:00;;;;;;;19.00;10.10;;;15.50;99.90;;;;;;20955985;28;20051;-77
2021/06/06 23:13:38;;;;;;;19.98;11.18;;;15.50;99.90;;;;;;20918436;28;20041;-77
2021/06/06 23:23:39;;;;;;;23.67;12.63;;;15.30;99.90;;;;;;20905453;28;20033;-77
2021/06/06 23:33:39;;;;;;;26.93;13.07;;;15.30;99.90;;;;;;20874984;28;20120;-78
2021/06/06 23:43:41;;;;;;;27.17;14.27;;;15.20;99.90;;;;;;20879432;28;20048;-78
2021/06/06 23:53:42;;;;;;;34.60;16.35;;;15.20;99.90;;;;;;20934389;28;20037;-77
